Time;durP1;ratioP1;P1;durP2;ratioP2;P2;SDS_P1;SDS_P2;PMS_P1;PMS_P2;Temp;Humidity;BMP_temperature;BMP_pressure;BME280_temperature;BME280_humidity;BME280_pressure;Samples;Min_cycle;Max_cycle;Signal;HPM_P1;HPM_P2
2020/12/13 00:00:42;;;;;;;26.20;15.52;;;;;;;3.22;80.17;92280.34;5089958;28;20073;-66
2020/12/13 00:03:08;;;;;;;28.38;15.82;;;;;;;3.41;79.36;92277.44;5089582;28;20123;-66
2020/12/13 00:05:33;;;;;;;21.25;13.07;;;;;;;3.36;80.04;92275.56;5089437;28;20034;-66
2020/12/13 00:07:58;;;;;;;24.45;14.68;;;;;;;3.40;79.66;92276.00;5089945;28;20428;-66
2020/12/13 00:10:24;;;;;;;22.15;14.90;;;;;;;3.36;79.85;92276.31;5086188;28;20036;-65
2020/12/13 00:12:50;;;;;;;29.90;15.60;;;;;;;3.39;79.57;92264.34;5089948;28;20032;-68
2020/12/13 00:15:15;;;;;;;30.83;17.38;;;;;;;3.41;80.07;92271.97;5088128;28;20027;-68
2020/12/13 00:17:40;;;;;;;23.80;13.48;;;;;;;3.43;79.46;92277.63;5086072;28;20042;-68
2020/12/13 00:20:07;;;;;;;20.27;12.95;;;;;;;3.45;79.22;92283.28;5085560;28;20028;-67
2020/12/13 00:22:32;;;;;;;12.98;9.07;;;;;;;3.42;78.48;92284.38;5088931;28;20032;-66
2020/12/13 00:24:58;;;;;;;12.05;8.48;;;;;;;3.11;79.29;92272.41;5087328;28;20034;-67
2020/12/13 00:27:23;;;;;;;15.50;8.80;;;;;;;3.11;79.65;92279.84;5087455;28;20463;-64
2020/12/13 00:29:49;;;;;;;12.32;7.72;;;;;;;3.13;79.71;92272.59;5091472;28;20633;-65
2020/12/13 00:32:14;;;;;;;15.02;9.50;;;;;;;3.14;78.75;92279.50;5085331;28;20039;-65
2020/12/13 00:34:40;;;;;;;19.52;10.18;;;;;;;2.68;80.11;92283.00;5088224;28;20112;-65
2020/12/13 00:37:05;;;;;;;16.13;10.18;;;;;;;2.72;79.75;92280.66;5087596;28;20059;-65
2020/12/13 00:39:32;;;;;;;14.18;9.73;;;;;;;2.71;79.73;92279.94;5085624;28;20109;-65
2020/12/13 00:41:57;;;;;;;19.50;11.23;;;;;;;2.64;80.17;92291.47;5088052;28;20468;-65
2020/12/13 00:44:23;;;;;;;29.90;15.48;;;;;;;2.45;80.04;92287.41;5091269;28;20166;-65
2020/12/13 00:46:48;;;;;;;25.77;14.55;;;;;;;2.46;80.12;92284.16;5087193;28;20027;-64
2020/12/13 00:49:15;;;;;;;22.80;13.88;;;;;;;2.28;80.46;92285.00;5088629;28;20031;-65
2020/12/13 00:51:40;;;;;;;24.55;14.85;;;;;;;2.28;80.48;92293.91;5084581;28;20388;-64
2020/12/13 00:54:05;;;;;;;23.17;12.38;;;;;;;2.26;80.17;92284.78;5085105;28;20028;-64
2020/12/13 00:56:31;;;;;;;29.73;15.65;;;;;;;2.01;81.17;92281.53;5087746;28;20028;-64
2020/12/13 00:58:57;;;;;;;25.30;14.23;;;;;;;1.79;81.52;92256.69;5091709;28;20038;-68
2020/12/13 01:01:22;;;;;;;21.48;13.13;;;;;;;1.71;81.79;92266.72;5080832;28;20040;-68
2020/12/13 01:03:48;;;;;;;21.48;12.88;;;;;;;1.90;81.57;92275.53;5091202;28;20407;-68
2020/12/13 01:06:23;;;;;;;18.67;10.60;;;;;;;1.77;81.04;92283.69;5086892;28;20129;-68
2020/12/13 01:08:51;;;;;;;35.22;17.70;;;;;;;1.78;82.53;92283.16;5087895;28;20036;-68
2020/12/13 01:11:28;;;;;;;77.18;27.48;;;;;;;1.76;82.20;92276.75;5097273;28;20485;-68
2020/12/13 01:13:54;;;;;;;27.40;15.02;;;;;;;1.94;82.02;92292.28;5097643;28;20036;-68
2020/12/13 01:16:20;;;;;;;19.15;9.85;;;;;;;1.98;81.80;92298.16;5081960;28;20036;-68
2020/12/13 01:18:45;;;;;;;14.70;8.57;;;;;;;1.86;82.09;92281.31;5097748;28;20612;-68
2020/12/13 01:21:17;;;;;;;18.17;9.07;;;;;;;1.84;81.85;92293.97;5100817;28;20031;-68
2020/12/13 01:23:43;;;;;;;20.95;11.70;;;;;;;1.84;81.03;92299.41;5092429;28;20031;-68
2020/12/13 01:26:15;;;;;;;25.00;13.07;;;;;;;1.87;80.19;92284.75;5093830;28;20028;-68
2020/12/13 01:28:41;;;;;;;35.22;15.20;;;;;;;1.57;79.93;92284.25;5092301;28;20097;-69
2020/12/13 01:31:07;;;;;;;32.13;16.58;;;;;;;1.44;80.54;92296.56;5094768;28;20028;-69
2020/12/13 01:33:32;;;;;;;17.80;9.45;;;;;;;1.25;82.49;92301.31;5096684;28;20085;-69
2020/12/13 01:35:58;;;;;;;16.15;8.95;;;;;;;1.10;83.54;92301.03;5096745;28;20480;-66
2020/12/13 01:38:24;;;;;;;10.68;6.80;;;;;;;1.02;84.26;92299.44;5100494;28;20044;-65
2020/12/13 01:40:55;;;;;;;17.35;8.98;;;;;;;0.97;84.66;92300.22;5090636;28;20047;-66
2020/12/13 01:43:20;;;;;;;22.38;11.98;;;;;;;0.94;83.99;92284.94;5103817;28;20023;-66
2020/12/13 01:45:46;;;;;;;12.75;7.97;;;;;;;1.28;83.12;92296.81;5090633;28;20404;-65
2020/12/13 01:48:11;;;;;;;10.30;6.63;;;;;;;1.19;82.77;92297.91;5083864;28;20146;-65
2020/12/13 01:53:15;;;;;;;9.38;5.40;;;;;;;1.29;81.45;92298.28;5103515;28;20742;-65
2020/12/13 01:55:46;;;;;;;11.98;5.93;;;;;;;1.20;81.12;92307.56;5093133;28;20101;-65
2020/12/13 01:58:21;;;;;;;11.02;6.28;;;;;;;1.19;81.21;92297.91;5086292;28;20028;-65
2020/12/13 02:00:50;;;;;;;13.82;8.75;;;;;;;1.42;80.78;92307.22;5093393;28;20035;-66
2020/12/13 02:03:17;;;;;;;;;;;;;;;1.46;80.41;92306.91;5095687;28;20031;-66
2020/12/13 02:05:49;;;;;;;15.38;6.93;;;;;;;1.50;80.35;92302.66;5086244;28;19920;-65
2020/12/13 02:08:17;;;;;;;15.90;8.65;;;;;;;1.43;80.55;92316.09;5089493;28;20031;-66
2020/12/13 02:10:42;;;;;;;16.85;9.85;;;;;;;1.32;80.29;92305.41;5088415;28;20028;-65
2020/12/13 02:13:07;;;;;;;14.05;9.05;;;;;;;1.35;80.19;92304.38;5090086;28;20024;-66
2020/12/13 02:15:34;;;;;;;20.27;9.82;;;;;;;1.39;79.92;92285.75;5087549;28;20034;-66
2020/12/13 02:18:00;;;;;;;25.23;11.15;;;;;;;1.49;79.68;92298.44;5087375;28;20576;-66
2020/12/13 02:20:25;;;;;;;22.35;12.10;;;;;;;1.26;80.96;92302.75;5083099;28;20028;-66
2020/12/13 02:22:50;;;;;;;33.55;15.90;;;;;;;1.16;81.24;92295.50;5096743;28;20046;-66
2020/12/13 02:25:18;;;;;;;63.70;18.88;;;;;;;1.16;80.66;92277.22;5095909;28;20060;-66
2020/12/13 02:27:44;;;;;;;85.82;19.52;;;;;;;1.34;81.12;92300.19;5101118;28;20496;-66
2020/12/13 02:30:09;;;;;;;55.60;18.73;;;;;;;1.30;81.17;92300.47;5088854;28;20055;-67
2020/12/13 02:32:35;;;;;;;61.78;16.15;;;;;;;1.45;81.71;92298.03;5095242;28;21401;-66
2020/12/13 02:35:01;;;;;;;48.58;15.13;;;;;;;1.34;82.30;92308.34;5087682;28;20020;-66
2020/12/13 02:37:27;;;;;;;62.05;14.35;;;;;;;1.46;82.48;92304.94;5089399;28;20031;-66
2020/12/13 02:39:53;;;;;;;36.53;12.52;;;;;;;1.59;81.81;92308.94;5091623;28;20044;-66
2020/12/13 02:42:18;;;;;;;37.60;10.98;;;;;;;1.70;81.45;92316.94;5087457;28;20520;-66
2020/12/13 02:44:44;;;;;;;33.03;10.75;;;;;;;1.67;82.27;92315.97;5095454;28;20111;-66
2020/12/13 02:47:09;;;;;;;31.10;10.48;;;;;;;1.62;82.25;92297.78;5087428;28;20113;-66
2020/12/13 02:49:35;;;;;;;53.17;10.80;;;;;;;1.72;82.77;92307.00;5090422;28;20044;-66
2020/12/13 02:52:01;;;;;;;55.38;9.13;;;;;;;1.79;82.56;92309.13;5096718;28;20056;-66
2020/12/13 02:54:26;;;;;;;25.40;6.13;;;;;;;1.85;82.62;92311.75;5087323;28;20041;-67
2020/12/13 02:56:51;;;;;;;19.63;5.55;;;;;;;1.77;82.97;92303.47;5097670;28;20020;-67
2020/12/13 02:59:17;;;;;;;18.40;5.32;;;;;;;1.55;83.03;92301.09;5087500;28;20473;-68
2020/12/13 03:01:42;;;;;;;8.23;4.35;;;;;;;1.67;82.83;92313.25;5090332;28;20407;-67
2020/12/13 03:04:08;;;;;;;29.35;4.80;;;;;;;1.80;82.31;92315.31;5099933;28;20492;-67
2020/12/13 03:06:33;;;;;;;16.55;3.25;;;;;;;1.84;81.35;92310.28;5088922;28;20028;-68
2020/12/13 03:08:58;;;;;;;19.80;4.25;;;;;;;1.85;80.48;92315.19;5102987;28;21130;-67
2020/12/13 03:11:24;;;;;;;42.25;3.58;;;;;;;1.74;81.64;92323.53;5104716;28;20019;-68
2020/12/13 03:13:50;;;;;;;35.88;4.35;;;;;;;1.90;81.86;92319.81;5098869;28;20444;-67
2020/12/13 03:16:16;;;;;;;22.63;3.97;;;;;;;1.81;81.12;92290.28;5087104;28;20084;-67
2020/12/13 03:18:42;;;;;;;38.83;4.75;;;;;;;1.78;80.95;92323.22;5091259;28;20020;-68
2020/12/13 03:21:07;;;;;;;10.02;5.00;;;;;;;1.71;81.89;92332.03;5098621;28;20106;-68
2020/12/13 03:23:33;;;;;;;14.68;6.57;;;;;;;1.74;81.84;92334.44;5088332;28;20032;-67
2020/12/13 03:25:58;;;;;;;17.80;4.53;;;;;;;1.69;81.38;92332.53;5093007;28;20046;-67
2020/12/13 03:28:23;;;;;;;16.73;5.45;;;;;;;1.77;81.66;92343.53;5085766;28;20043;-67
2020/12/13 03:30:49;;;;;;;19.95;4.80;;;;;;;1.76;82.16;92336.63;5096017;28;20027;-68
2020/12/13 03:33:14;;;;;;;17.40;6.68;;;;;;;1.70;81.93;92334.00;5094841;28;20023;-68
2020/12/13 03:35:40;;;;;;;26.95;5.55;;;;;;;1.72;81.85;92342.38;5094869;28;20073;-68
2020/12/13 03:38:05;;;;;;;26.88;4.35;;;;;;;1.74;81.02;92339.13;5099876;28;20066;-68
2020/12/13 03:40:31;;;;;;;17.08;3.30;;;;;;;1.73;80.09;92337.69;5095021;28;20123;-68
2020/12/13 03:42:56;;;;;;;27.40;4.43;;;;;;;1.67;80.29;92331.59;5090117;28;20059;-68
2020/12/13 03:45:21;;;;;;;13.25;3.35;;;;;;;1.69;80.52;92343.41;5086642;28;20123;-68
2020/12/13 03:47:47;;;;;;;12.45;3.55;;;;;;;1.59;80.63;92328.72;5087526;28;20035;-68
2020/12/13 03:50:12;;;;;;;22.90;3.25;;;;;;;1.52;80.73;92335.50;5099010;28;20039;-68
2020/12/13 03:52:38;;;;;;;14.82;3.40;;;;;;;1.57;80.94;92330.50;5095109;28;20029;-68
2020/12/13 03:55:03;;;;;;;20.50;4.55;;;;;;;1.39;81.64;92329.28;5091471;28;20107;-68
2020/12/13 03:57:28;;;;;;;15.20;4.38;;;;;;;1.16;82.17;92330.84;5086304;28;20657;-68
2020/12/13 03:59:54;;;;;;;16.83;6.57;;;;;;;0.99;82.90;92330.34;5074922;28;20039;-68
2020/12/13 04:02:19;;;;;;;14.52;6.03;;;;;;;0.96;83.40;92325.91;5096092;28;20049;-67
2020/12/13 04:04:45;;;;;;;14.77;5.10;;;;;;;1.02;83.55;92329.31;5105830;28;20502;-67
2020/12/13 04:07:10;;;;;;;10.90;3.85;;;;;;;0.94;82.95;92326.44;5101288;28;20031;-67
2020/12/13 04:09:35;;;;;;;15.68;3.72;;;;;;;1.22;83.14;92331.50;5087861;28;20023;-67
2020/12/13 04:12:01;;;;;;;13.25;4.15;;;;;;;1.20;82.67;92329.31;5093587;27;20020;-67
2020/12/13 04:14:26;;;;;;;15.43;3.65;;;;;;;1.33;82.60;92321.22;5097279;28;20031;-66
2020/12/13 04:16:52;;;;;;;8.77;4.13;;;;;;;1.35;82.26;92326.88;5103922;28;20062;-67
2020/12/13 04:19:17;;;;;;;41.85;4.10;;;;;;;1.35;81.31;92324.13;5091439;28;20051;-67
2020/12/13 04:21:43;;;;;;;23.98;3.53;;;;;;;1.37;80.96;92326.34;5093344;28;20027;-67
2020/12/13 04:24:08;;;;;;;64.03;5.63;;;;;;;1.44;81.59;92325.75;5087360;28;20027;-67
2020/12/13 04:26:34;;;;;;;28.67;5.40;;;;;;;1.45;80.86;92333.38;5103759;28;20110;-67
2020/12/13 04:28:59;;;;;;;25.13;6.22;;;;;;;1.28;81.07;92327.44;5090525;28;20035;-67
2020/12/13 04:31:25;;;;;;;21.63;6.43;;;;;;;1.49;81.56;92333.09;5094350;28;22460;-66
2020/12/13 04:33:50;;;;;;;36.30;6.78;;;;;;;1.48;81.27;92329.63;5105657;28;20075;-67
2020/12/13 04:36:15;;;;;;;28.05;7.70;;;;;;;1.35;80.93;92318.69;5101847;28;20019;-67
2020/12/13 04:38:41;;;;;;;28.73;8.32;;;;;;;1.32;81.44;92330.59;5088866;28;20032;-67
2020/12/13 04:41:07;;;;;;;48.97;9.27;;;;;;;1.30;81.10;92324.22;5088351;28;20472;-67
2020/12/13 04:43:32;;;;;;;29.83;8.50;;;;;;;1.31;81.50;92331.13;5100696;28;20098;-67
2020/12/13 04:45:58;;;;;;;20.92;8.13;;;;;;;1.36;81.63;92341.94;5090098;28;20042;-67
2020/12/13 04:48:24;;;;;;;16.25;7.50;;;;;;;1.45;82.06;92348.97;5092160;28;20913;-67
2020/12/13 04:50:50;;;;;;;21.52;8.10;;;;;;;1.42;81.32;92334.44;5086453;28;20023;-67
2020/12/13 04:53:16;;;;;;;34.65;11.93;;;;;;;1.45;81.15;92327.94;5089658;28;20110;-67
2020/12/13 04:55:50;;;;;;;34.30;12.73;;;;;;;1.36;81.32;92349.34;5085994;28;20034;-67
2020/12/13 04:58:18;;;;;;;43.55;12.35;;;;;;;1.50;81.18;92354.31;5094519;28;20058;-67
2020/12/13 05:00:45;;;;;;;44.38;11.35;;;;;;;1.47;80.03;92335.59;5092099;28;20117;-67
2020/12/13 05:03:15;;;;;;;40.55;10.23;;;;;;;1.56;79.59;92358.97;5090205;28;20032;-67
2020/12/13 05:05:40;;;;;;;27.30;5.55;;;;;;;1.40;79.40;92353.25;5086105;28;20055;-67
2020/12/13 05:08:06;;;;;;;14.20;6.13;;;;;;;0.97;81.09;92352.59;5087798;28;20082;-67
2020/12/13 05:10:37;;;;;;;24.25;6.82;;;;;;;0.90;81.98;92361.31;5091366;28;20044;-67
2020/12/13 05:13:03;;;;;;;10.95;5.15;;;;;;;0.87;81.88;92356.19;5091615;28;20047;-67
2020/12/13 05:15:28;;;;;;;11.35;5.03;;;;;;;0.87;81.67;92354.19;5090759;28;20085;-67
2020/12/13 05:17:58;;;;;;;13.63;4.75;;;;;;;0.61;81.74;92345.84;5086542;28;20028;-67
2020/12/13 05:20:24;;;;;;;8.63;5.45;;;;;;;0.78;81.58;92359.97;5087965;28;20110;-65
2020/12/13 05:22:50;;;;;;;11.88;6.00;;;;;;;0.86;81.45;92352.75;5090402;28;20023;-67
2020/12/13 05:25:15;;;;;;;20.20;6.03;;;;;;;0.96;81.08;92348.41;5067043;28;20114;-66
2020/12/13 05:27:41;;;;;;;27.40;8.57;;;;;;;0.92;80.64;92360.81;5085187;28;20032;-67
2020/12/13 05:30:08;;;;;;;18.42;8.02;;;;;;;1.02;80.69;92362.66;5085222;28;20037;-67
2020/12/13 05:32:34;;;;;;;23.33;7.45;;;;;;;1.04;80.00;92354.72;5093982;28;20084;-67
2020/12/13 05:34:59;;;;;;;6.25;4.13;;;;;;;1.10;79.73;92370.97;5099889;28;20518;-67
2020/12/13 05:37:29;;;;;;;37.50;7.25;;;;;;;0.96;79.66;92367.44;5092826;28;20029;-67
2020/12/13 05:39:54;;;;;;;21.77;7.88;;;;;;;0.88;79.65;92366.53;5090803;28;20473;-67
2020/12/13 05:42:31;;;;;;;38.15;9.85;;;;;;;0.92;80.22;92371.69;5091110;28;20040;-67
2020/12/13 05:52:43;;;;;;;6.13;3.22;;;;;;;0.77;80.73;92382.97;5104851;28;20023;-67
2020/12/13 05:55:10;;;;;;;7.95;3.15;;;;;;;0.63;80.36;92373.97;5102047;28;20443;-67
2020/12/13 05:57:36;;;;;;;10.13;4.28;;;;;;;0.65;80.13;92392.50;5104189;28;20023;-67
2020/12/13 06:00:04;;;;;;;6.43;3.92;;;;;;;0.49;79.85;92382.53;5098858;28;20127;-67
2020/12/13 06:02:30;;;;;;;16.70;4.70;;;;;;;0.38;81.08;92380.69;5093780;28;20042;-67
2020/12/13 06:05:02;;;;;;;9.15;2.92;;;;;;;0.59;80.24;92389.09;5090667;28;20032;-67
2020/12/13 06:07:30;;;;;;;7.50;3.65;;;;;;;0.72;79.67;92408.22;5094237;28;20032;-67
2020/12/13 06:09:57;;;;;;;6.82;4.13;;;;;;;0.56;79.35;92409.13;5087759;28;20084;-67
2020/12/13 06:12:28;;;;;;;84.13;19.83;;;;;;;0.47;79.97;92412.19;5097621;28;20036;-67
2020/12/13 06:15:00;;;;;;;12.25;6.03;;;;;;;0.61;80.00;92411.78;5094768;28;20047;-67
2020/12/13 06:17:26;;;;;;;7.82;3.25;;;;;;;0.34;79.46;92401.22;5085589;28;20028;-66
2020/12/13 06:19:52;;;;;;;15.60;8.23;;;;;;;0.43;79.86;92419.88;5084455;28;20036;-67
2020/12/13 06:22:20;;;;;;;9.57;3.90;;;;;;;0.30;80.03;92401.50;5087947;28;20088;-67
2020/12/13 06:24:46;;;;;;;10.85;5.95;;;;;;;0.27;80.84;92413.38;5092366;28;20035;-67
2020/12/13 06:27:12;;;;;;;8.35;4.45;;;;;;;0.35;80.77;92416.97;5100345;28;20074;-67
2020/12/13 06:29:37;;;;;;;12.60;5.47;;;;;;;0.30;81.09;92417.78;5089536;28;20023;-67
2020/12/13 06:32:03;;;;;;;11.48;4.07;;;;;;;0.45;80.80;92428.25;5087987;28;20636;-67
2020/12/13 06:34:30;;;;;;;16.55;4.95;;;;;;;0.42;79.85;92399.41;5091523;28;20048;-66
2020/12/13 06:36:57;;;;;;;15.32;5.82;;;;;;;0.63;80.39;92422.13;5084143;28;20028;-67
2020/12/13 06:39:23;;;;;;;38.03;16.25;;;;;;;0.74;80.13;92420.03;5078956;28;20498;-66
2020/12/13 06:41:50;;;;;;;74.00;30.20;;;;;;;0.91;80.48;92425.28;5073913;28;20118;-67
2020/12/13 06:44:16;;;;;;;31.80;13.25;;;;;;;1.15;79.88;92421.81;5081841;28;20027;-67
2020/12/13 06:46:47;;;;;;;265.38;87.53;;;;;;;1.24;79.65;92418.72;5080323;28;20027;-68
2020/12/13 06:49:17;;;;;;;196.57;75.43;;;;;;;1.43;78.96;92424.88;5078774;28;20019;-67
2020/12/13 06:51:43;;;;;;;45.85;24.00;;;;;;;1.62;77.78;92435.78;5097446;28;20088;-66
2020/12/13 06:54:11;;;;;;;36.97;16.27;;;;;;;1.76;76.87;92434.56;5085310;28;20099;-67
2020/12/13 06:56:38;;;;;;;48.85;22.23;;;;;;;1.77;77.07;92425.91;5089042;28;20015;-66
2020/12/13 06:59:06;;;;;;;61.58;28.23;;;;;;;1.98;76.59;92436.97;5085741;28;20555;-65
2020/12/13 07:01:34;;;;;;;51.42;26.13;;;;;;;2.15;75.55;92435.47;5089726;28;20102;-66
2020/12/13 07:04:25;;;;;;;41.40;21.20;;;;;;;2.26;74.22;92437.28;5090128;28;20423;-66
2020/12/13 07:06:59;;;;;;;32.00;16.13;;;;;;;2.25;74.62;92441.97;5089429;28;20103;-67
2020/12/13 07:09:26;;;;;;;125.25;47.72;;;;;;;2.20;74.25;92442.81;5082273;28;20042;-67
2020/12/13 07:11:53;;;;;;;98.68;43.17;;;;;;;2.18;74.99;92450.03;5082918;28;20028;-65
2020/12/13 07:14:22;;;;;;;108.35;45.67;;;;;;;2.14;75.15;92457.78;5077800;28;20062;-65
2020/12/13 07:16:57;;;;;;;111.35;52.20;;;;;;;2.22;75.45;92469.53;5074573;28;20024;-66
2020/12/13 07:19:24;;;;;;;111.03;49.10;;;;;;;2.35;75.33;92469.56;5077729;28;20127;-66
2020/12/13 07:21:49;;;;;;;91.40;40.08;;;;;;;2.52;74.64;92464.59;5080917;28;20051;-66
2020/12/13 07:24:15;;;;;;;95.57;37.83;;;;;;;2.46;74.21;92483.00;5084412;28;20564;-66
2020/12/13 07:26:40;;;;;;;78.68;37.88;;;;;;;2.73;73.78;92473.63;5081616;28;20020;-66
2020/12/13 07:29:15;;;;;;;62.65;30.38;;;;;;;2.84;73.51;92483.59;5083028;28;20102;-66
2020/12/13 07:31:44;;;;;;;51.05;26.08;;;;;;;3.33;73.01;92484.69;5091192;28;20039;-67
2020/12/13 07:34:10;;;;;;;32.78;18.95;;;;;;;3.56;71.78;92463.88;5092075;28;20561;-66
2020/12/13 07:36:35;;;;;;;43.63;22.52;;;;;;;3.82;71.75;92476.75;5084676;28;20028;-66
2020/12/13 07:39:05;;;;;;;46.85;24.88;;;;;;;4.07;71.70;92469.03;5082695;28;20070;-66
2020/12/13 07:41:31;;;;;;;60.35;33.42;;;;;;;4.33;69.62;92488.75;5080454;28;20373;-67
2020/12/13 07:44:05;;;;;;;97.78;43.53;;;;;;;4.50;70.10;92475.44;5084370;28;20028;-66
2020/12/13 07:46:31;;;;;;;80.25;41.20;;;;;;;5.23;69.03;92480.59;5086761;28;20042;-67
2020/12/13 07:49:16;;;;;;;90.30;41.47;;;;;;;5.66;64.78;92479.19;5082172;28;20097;-67
2020/12/13 07:51:43;;;;;;;99.65;46.70;;;;;;;5.78;64.59;92480.34;5089024;28;20615;-67
2020/12/13 07:54:19;;;;;;;95.43;41.58;;;;;;;6.05;65.37;92482.31;5078466;28;20059;-68
2020/12/13 07:56:47;;;;;;;73.78;37.42;;;;;;;6.64;64.91;92487.75;5080264;28;20026;-68
2020/12/13 07:59:17;;;;;;;56.72;29.50;;;;;;;6.77;62.93;92479.34;5083945;28;20483;-68
2020/12/13 08:01:45;;;;;;;42.40;23.27;;;;;;;6.95;62.42;92478.28;5076351;28;20388;-68
2020/12/13 08:04:11;;;;;;;22.05;12.63;;;;;;;6.94;62.11;92487.03;5084129;28;20024;-68
2020/12/13 08:06:36;;;;;;;18.70;8.52;;;;;;;6.25;63.61;92488.94;5078219;28;20502;-68
2020/12/13 08:09:12;;;;;;;13.18;6.68;;;;;;;5.81;66.24;92485.47;5080514;28;20117;-68
2020/12/13 08:11:39;;;;;;;12.30;8.25;;;;;;;5.29;67.77;92486.63;5086587;28;20088;-68
2020/12/13 08:14:06;;;;;;;4.25;3.67;;;;;;;5.23;68.28;92485.31;5090918;28;20028;-66
2020/12/13 08:16:32;;;;;;;10.13;6.75;;;;;;;4.92;69.04;92483.63;5090570;28;20020;-65
2020/12/13 08:19:10;;;;;;;10.35;6.75;;;;;;;5.39;69.33;92489.63;5085200;28;20055;-66
2020/12/13 08:21:50;;;;;;;16.73;9.30;;;;;;;5.98;68.32;92493.97;5086622;28;20020;-66
2020/12/13 08:24:17;;;;;;;26.15;9.93;;;;;;;6.34;67.13;92490.44;5079429;28;20034;-66
2020/12/13 08:26:43;;;;;;;16.45;11.48;;;;;;;6.50;67.65;92489.19;5082781;28;20016;-67
2020/12/13 08:29:09;;;;;;;17.23;10.27;;;;;;;6.52;66.89;92490.09;5093843;28;20023;-67
2020/12/13 08:31:35;;;;;;;23.77;14.77;;;;;;;6.41;66.88;92489.72;5090427;28;20034;-67
2020/12/13 08:34:06;;;;;;;27.80;16.35;;;;;;;6.09;67.41;92479.94;5080765;28;20061;-67
2020/12/13 08:36:33;;;;;;;35.42;20.40;;;;;;;6.27;67.96;92488.41;5079960;28;20032;-68
2020/12/13 08:39:11;;;;;;;27.17;14.98;;;;;;;6.08;68.63;92492.19;5083984;28;20104;-68
2020/12/13 08:41:45;;;;;;;35.90;17.98;;;;;;;5.80;69.70;92502.44;5090062;28;20170;-67
2020/12/13 08:44:35;;;;;;;36.58;18.95;;;;;;;5.80;70.19;92508.66;5090652;28;20026;-67
2020/12/13 08:47:06;;;;;;;29.48;16.50;;;;;;;5.73;71.15;92503.13;5096897;28;20107;-67
2020/12/13 08:49:33;;;;;;;28.25;16.55;;;;;;;5.76;71.13;92500.03;5100477;28;20039;-67
2020/12/13 08:52:25;;;;;;;28.90;16.45;;;;;;;5.86;71.39;92501.03;5086528;28;20604;-67
2020/12/13 08:54:53;;;;;;;35.75;19.15;;;;;;;6.08;71.25;92505.88;5080771;28;20552;-67
2020/12/13 08:57:32;;;;;;;30.00;18.90;;;;;;;6.26;70.95;92503.38;5079207;28;20454;-67
2020/12/13 08:59:59;;;;;;;23.25;15.50;;;;;;;6.45;70.87;92501.06;5085753;28;20038;-67
2020/12/13 09:02:24;;;;;;;15.48;8.95;;;;;;;6.54;70.92;92497.78;5090317;28;20057;-67
2020/12/13 09:04:57;;;;;;;7.00;4.53;;;;;;;6.64;70.87;92496.72;5077280;28;20518;-67
2020/12/13 09:07:23;;;;;;;22.27;11.32;;;;;;;6.71;71.62;92503.50;5087556;28;20076;-67
2020/12/13 09:09:49;;;;;;;54.95;27.92;;;;;;;6.70;71.65;92502.00;5087475;28;20027;-66
2020/12/13 09:12:28;;;;;;;23.48;14.13;;;;;;;6.67;71.85;92494.91;5069892;28;20114;-67
2020/12/13 09:14:53;;;;;;;19.33;11.55;;;;;;;6.68;72.12;92493.59;5069534;28;20441;-67
2020/12/13 09:17:23;;;;;;;26.38;15.38;;;;;;;6.75;72.05;92501.13;5073689;28;20047;-67
2020/12/13 09:19:50;;;;;;;26.95;16.17;;;;;;;6.70;71.58;92500.00;5066515;28;20047;-65
2020/12/13 09:22:22;;;;;;;28.73;17.17;;;;;;;6.68;71.85;92479.88;5078573;28;20035;-68
2020/12/13 09:24:48;;;;;;;17.50;10.32;;;;;;;6.99;72.00;92489.63;5070702;28;20392;-67
2020/12/13 09:27:19;;;;;;;13.88;8.80;;;;;;;7.14;71.55;92497.09;5080922;28;20056;-67
2020/12/13 09:29:46;;;;;;;11.35;8.35;;;;;;;7.28;71.85;92493.63;5081648;28;20037;-67
2020/12/13 09:32:11;;;;;;;19.27;12.73;;;;;;;7.40;71.69;92491.97;5084762;28;20026;-67
2020/12/13 09:34:38;;;;;;;25.48;14.52;;;;;;;7.55;70.77;92485.72;5072910;28;20032;-66
2020/12/13 09:37:07;;;;;;;26.88;14.60;;;;;;;7.74;70.49;92479.81;5075006;28;20023;-67
2020/12/13 09:39:33;;;;;;;23.27;15.80;;;;;;;7.85;70.07;92477.41;5073468;28;20055;-68
2020/12/13 09:41:59;;;;;;;24.73;16.10;;;;;;;8.03;69.95;92481.00;5089744;28;20084;-67
2020/12/13 09:44:25;;;;;;;22.05;12.98;;;;;;;8.11;69.72;92476.94;5080513;28;20020;-68
2020/12/13 09:46:54;;;;;;;12.95;8.18;;;;;;;8.15;68.52;92471.03;5088364;28;20859;-67
2020/12/13 09:49:20;;;;;;;11.50;6.97;;;;;;;8.14;68.86;92469.59;5083593;28;20664;-67
2020/12/13 09:51:46;;;;;;;16.75;10.48;;;;;;;7.98;69.81;92468.19;5072870;28;20076;-66
2020/12/13 09:54:11;;;;;;;11.85;6.90;;;;;;;8.01;70.10;92476.03;5083479;28;20051;-67
2020/12/13 09:56:37;;;;;;;8.95;6.38;;;;;;;8.04;70.22;92468.72;5082619;28;20463;-67
2020/12/13 09:59:02;;;;;;;12.25;6.97;;;;;;;8.24;69.74;92462.94;5083399;28;20038;-65
2020/12/13 10:01:28;;;;;;;22.63;11.50;;;;;;;8.25;69.52;92456.19;5074829;28;20111;-67
2020/12/13 10:03:54;;;;;;;11.15;6.30;;;;;;;8.37;69.41;92462.00;5081187;28;20047;-67
2020/12/13 10:06:31;;;;;;;13.63;5.25;;;;;;;8.13;69.19;92446.13;5079587;28;20027;-66
2020/12/13 10:11:33;;;;;;;4.38;2.47;;;;;;;7.96;69.65;92462.50;5076340;28;20038;-67
2020/12/13 10:13:58;;;;;;;5.80;3.40;;;;;;;7.79;69.52;92454.16;5075531;28;20016;-67
2020/12/13 10:16:25;;;;;;;11.05;4.90;;;;;;;7.95;69.41;92461.06;5090024;28;20403;-66
2020/12/13 10:18:51;;;;;;;4.85;3.13;;;;;;;8.09;68.79;92459.53;5093558;28;20411;-67
2020/12/13 10:21:32;;;;;;;4.97;2.80;;;;;;;8.10;68.91;92456.22;5086697;28;20020;-66
2020/12/13 10:23:59;;;;;;;7.60;4.38;;;;;;;7.99;68.98;92453.16;5093451;28;20411;-68
2020/12/13 10:26:26;;;;;;;3.58;3.20;;;;;;;8.04;69.00;92463.22;5084945;28;20016;-67
2020/12/13 10:28:52;;;;;;;5.28;3.13;;;;;;;8.24;68.36;92457.44;5087658;28;20080;-67
2020/12/13 10:31:19;;;;;;;5.07;3.08;;;;;;;8.60;67.46;92457.09;5091522;28;20476;-67
2020/12/13 10:33:44;;;;;;;7.35;3.35;;;;;;;8.82;66.81;92456.22;5086284;28;20047;-68
2020/12/13 10:36:12;;;;;;;10.82;4.70;;;;;;;9.02;65.93;92457.91;5084639;28;20066;-68
2020/12/13 10:38:38;;;;;;;8.63;4.05;;;;;;;9.03;65.43;92437.31;5092438;28;20050;-67
2020/12/13 10:41:05;;;;;;;9.73;4.35;;;;;;;9.06;64.46;92449.97;5091536;28;20063;-66
2020/12/13 10:43:30;;;;;;;7.00;3.25;;;;;;;9.14;64.99;92447.13;5095150;28;20426;-66
2020/12/13 10:45:56;;;;;;;6.72;3.65;;;;;;;9.18;64.42;92452.25;5086491;28;20028;-66
2020/12/13 10:48:21;;;;;;;9.50;4.25;;;;;;;9.27;63.52;92452.34;5085596;28;20438;-67
2020/12/13 10:50:47;;;;;;;3.88;3.33;;;;;;;9.08;65.33;92454.91;5097020;28;20027;-66
2020/12/13 10:53:12;;;;;;;3.58;2.50;;;;;;;9.06;64.60;92452.72;5106484;28;20028;-66
2020/12/13 10:55:38;;;;;;;7.53;4.75;;;;;;;8.92;64.66;92450.81;5096517;27;20027;-66
2020/12/13 10:58:03;;;;;;;3.20;2.10;;;;;;;8.84;65.39;92453.63;5091422;28;20038;-66
2020/12/13 11:00:28;;;;;;;2.78;2.20;;;;;;;8.69;65.25;92461.97;5097696;28;20361;-66
2020/12/13 11:02:54;;;;;;;4.40;2.42;;;;;;;8.61;65.09;92461.31;5087679;28;20151;-66
2020/12/13 11:05:19;;;;;;;3.35;2.30;;;;;;;8.29;65.89;92469.56;5089401;28;20042;-66
2020/12/13 11:07:45;;;;;;;3.28;2.42;;;;;;;8.18;66.48;92458.94;5087368;28;20024;-66
2020/12/13 11:10:10;;;;;;;4.63;3.13;;;;;;;8.04;67.03;92457.72;5099915;28;20419;-66
2020/12/13 11:12:36;;;;;;;9.00;5.50;;;;;;;8.01;67.64;92464.34;5086358;28;20032;-67
2020/12/13 11:15:03;;;;;;;9.00;5.50;;;;;;;8.07;67.35;92476.59;5105729;28;20024;-67
2020/12/13 11:17:28;;;;;;;3.60;2.78;;;;;;;8.00;68.00;92473.84;5095285;28;20105;-67
2020/12/13 11:19:54;;;;;;;5.35;2.83;;;;;;;7.96;68.51;92481.75;5083939;28;20037;-66
2020/12/13 11:22:19;;;;;;;3.38;2.85;;;;;;;7.88;68.42;92486.56;5082317;28;20028;-67
2020/12/13 11:24:45;;;;;;;4.38;3.10;;;;;;;7.68;68.52;92482.75;5083253;28;20065;-67
2020/12/13 11:27:10;;;;;;;4.57;2.95;;;;;;;7.76;68.37;92480.72;5086440;28;20036;-67
2020/12/13 11:29:36;;;;;;;14.32;6.93;;;;;;;7.84;68.37;92472.47;5092247;28;20689;-66
2020/12/13 11:32:02;;;;;;;5.90;3.80;;;;;;;7.84;68.34;92473.19;5093598;28;20451;-66
2020/12/13 11:34:27;;;;;;;4.50;3.28;;;;;;;7.88;67.99;92464.56;5085668;28;20035;-66
2020/12/13 11:36:52;;;;;;;6.78;4.10;;;;;;;7.92;68.98;92471.16;5098117;28;20054;-66
2020/12/13 11:39:18;;;;;;;4.93;3.75;;;;;;;7.67;68.42;92442.13;5089930;28;20048;-66
2020/12/13 11:41:43;;;;;;;4.43;3.10;;;;;;;7.93;68.23;92466.38;5084528;28;20028;-66
2020/12/13 11:44:09;;;;;;;5.60;3.53;;;;;;;8.01;67.84;92456.81;5088709;28;20400;-66